Time;durP1;ratioP1;P1;durP2;ratioP2;P2;SDS_P1;SDS_P2;PMS_P1;PMS_P2;Temp;Humidity;BMP_temperature;BMP_pressure;BME280_temperature;BME280_humidity;BME280_pressure;Samples;Min_cycle;Max_cycle;Signal;HPM_P1;HPM_P2
2021/08/13 00:00:09;;;;;;;13.87;9.50;;;;;;;;;;5033201;28;20199;-75
2021/08/13 00:03:20;;;;;;;18.77;10.00;;;;;;;;;;5023060;28;20224;-75
2021/08/13 00:06:24;;;;;;;21.90;10.73;;;;;;;;;;5012220;28;20697;-75
2021/08/13 00:09:28;;;;;;;12.20;9.77;;;;;;;;;;5035474;28;20211;-75
2021/08/13 00:12:32;;;;;;;13.77;9.23;;;;;;;;;;5036003;28;20864;-75
2021/08/13 00:15:36;;;;;;;12.37;9.33;;;;;;;;;;5015794;28;20189;-75
2021/08/13 00:18:40;;;;;;;15.90;10.13;;;;;;;;;;5016255;28;20180;-75
2021/08/13 00:21:52;;;;;;;14.27;8.97;;;;;;;;;;5019349;28;20702;-76
2021/08/13 00:24:56;;;;;;;11.47;9.20;;;;;;;;;;5009007;28;20202;-76
2021/08/13 00:28:00;;;;;;;10.87;9.40;;;;;;;;;;5027455;28;20562;-76
2021/08/13 00:31:05;;;;;;;12.47;10.20;;;;;;;;;;5027438;28;20532;-76
2021/08/13 00:34:09;;;;;;;14.13;9.87;;;;;;;;;;5039351;28;20583;-75
2021/08/13 00:37:14;;;;;;;13.97;9.27;;;;;;;;;;5027913;28;20184;-76
2021/08/13 00:40:19;;;;;;;13.53;8.77;;;;;;;;;;5026850;28;20197;-75
2021/08/13 00:43:24;;;;;;;13.20;9.30;;;;;;;;;;5016316;28;20212;-76
2021/08/13 00:46:28;;;;;;;14.60;9.27;;;;;;;;;;5027128;28;20231;-76
2021/08/13 00:49:47;;;;;;;14.13;9.60;;;;;;;;;;5012549;28;20193;-76
2021/08/13 00:52:59;;;;;;;12.60;8.80;;;;;;;;;;5007656;28;20236;-75
2021/08/13 00:56:04;;;;;;;15.57;9.63;;;;;;;;;;5007803;28;20189;-76
2021/08/13 00:59:29;;;;;;;19.60;9.53;;;;;;;;;;5019865;28;20188;-76
2021/08/13 01:02:46;;;;;;;12.80;9.20;;;;;;;;;;5006214;28;20284;-76
2021/08/13 01:05:53;;;;;;;10.10;8.70;;;;;;;;;;5016102;28;20193;-75
2021/08/13 01:08:58;;;;;;;11.53;9.00;;;;;;;;;;5024137;28;20180;-76
2021/08/13 01:12:21;;;;;;;13.83;9.17;;;;;;;;;;5004240;28;20205;-75
2021/08/13 01:15:30;;;;;;;15.43;9.83;;;;;;;;;;5024531;28;20189;-76
2021/08/13 01:18:39;;;;;;;15.10;9.77;;;;;;;;;;5023461;28;20184;-76
2021/08/13 01:21:52;;;;;;;13.60;9.33;;;;;;;;;;5024187;28;20240;-76
2021/08/13 01:25:04;;;;;;;12.80;9.47;;;;;;;;;;5003852;28;20687;-76
2021/08/13 01:28:25;;;;;;;16.93;9.77;;;;;;;;;;5017040;28;20220;-75
2021/08/13 01:31:41;;;;;;;10.80;9.37;;;;;;;;;;5015172;28;20190;-76
2021/08/13 01:34:50;;;;;;;15.57;10.60;;;;;;;;;;5003985;28;20297;-76
2021/08/13 01:37:59;;;;;;;16.97;10.97;;;;;;;;;;5003439;28;20195;-76
2021/08/13 01:41:08;;;;;;;16.80;10.80;;;;;;;;;;5004259;28;20185;-76
2021/08/13 01:44:16;;;;;;;13.13;10.47;;;;;;;;;;5001098;28;20232;-75
2021/08/13 01:47:21;;;;;;;13.37;10.00;;;;;;;;;;5003985;28;20217;-76
2021/08/13 01:50:27;;;;;;;14.63;11.00;;;;;;;;;;5015101;28;20208;-76
2021/08/13 01:53:34;;;;;;;15.30;10.73;;;;;;;;;;5003636;28;20220;-75
2021/08/13 01:56:40;;;;;;;13.70;10.17;;;;;;;;;;5019444;28;20670;-75
2021/08/13 01:59:46;;;;;;;13.90;10.37;;;;;;;;;;5023467;28;20192;-76
2021/08/13 02:02:52;;;;;;;17.00;10.23;;;;;;;;;;5011510;28;20239;-76
2021/08/13 02:06:00;;;;;;;17.83;10.93;;;;;;;;;;5022667;28;20204;-75
2021/08/13 02:09:04;;;;;;;18.67;11.27;;;;;;;;;;5023196;28;20195;-76
2021/08/13 02:12:14;;;;;;;13.20;10.30;;;;;;;;;;5015031;23;20603;-75
2021/08/13 02:15:20;;;;;;;13.43;10.83;;;;;;;;;;4983737;28;20185;-75
2021/08/13 02:18:26;;;;;;;14.60;10.00;;;;;;;;;;4982961;28;20189;-75
2021/08/13 02:21:36;;;;;;;14.87;10.63;;;;;;;;;;4982708;28;20691;-75
2021/08/13 02:24:42;;;;;;;12.97;10.50;;;;;;;;;;4983623;28;20240;-75
2021/08/13 02:27:50;;;;;;;15.20;11.10;;;;;;;;;;4982808;28;20581;-75
2021/08/13 02:30:56;;;;;;;16.13;11.63;;;;;;;;;;4983280;28;20189;-75
2021/08/13 02:34:01;;;;;;;14.83;10.43;;;;;;;;;;4983499;28;20224;-75
2021/08/13 02:37:09;;;;;;;11.70;10.50;;;;;;;;;;4983384;28;20216;-75
2021/08/13 02:40:16;;;;;;;13.40;10.23;;;;;;;;;;4972105;28;20197;-76
2021/08/13 02:43:28;;;;;;;14.23;11.13;;;;;;;;;;4982702;28;20225;-76
2021/08/13 02:46:54;;;;;;;18.33;10.37;;;;;;;;;;4972420;28;20652;-76
2021/08/13 02:50:08;;;;;;;12.07;10.17;;;;;;;;;;4983023;28;20192;-75
2021/08/13 02:53:21;;;;;;;13.67;10.63;;;;;;;;;;4971703;28;20221;-75
2021/08/13 02:56:30;;;;;;;12.77;10.47;;;;;;;;;;4952650;28;20194;-75
2021/08/13 02:59:36;;;;;;;11.73;10.53;;;;;;;;;;4974701;28;20206;-75
2021/08/13 03:02:42;;;;;;;13.63;10.43;;;;;;;;;;4963599;28;20190;-76
2021/08/13 03:05:51;;;;;;;13.87;10.40;;;;;;;;;;4974682;28;20186;-75
2021/08/13 03:08:56;;;;;;;12.83;10.13;;;;;;;;;;4973015;28;20715;-75
2021/08/13 03:12:01;;;;;;;12.67;10.63;;;;;;;;;;4981804;28;20707;-75
2021/08/13 03:15:06;;;;;;;13.50;10.87;;;;;;;;;;4963130;28;20221;-75
2021/08/13 03:18:15;;;;;;;12.67;10.60;;;;;;;;;;4974279;28;20259;-75
2021/08/13 03:21:20;;;;;;;14.17;11.60;;;;;;;;;;4989424;28;20197;-75
2021/08/13 03:24:25;;;;;;;14.63;11.07;;;;;;;;;;4982079;28;20220;-75
2021/08/13 03:27:30;;;;;;;12.97;10.50;;;;;;;;;;4986790;28;20244;-75
2021/08/13 03:30:40;;;;;;;15.33;11.07;;;;;;;;;;4982024;28;20185;-75
2021/08/13 03:33:46;;;;;;;15.00;11.07;;;;;;;;;;4971061;28;20724;-75
2021/08/13 03:36:50;;;;;;;14.73;10.90;;;;;;;;;;4994395;28;20643;-75
2021/08/13 03:39:59;;;;;;;14.97;11.57;;;;;;;;;;4951997;28;20190;-76
2021/08/13 03:43:04;;;;;;;15.87;10.57;;;;;;;;;;4973808;28;20237;-75
2021/08/13 03:46:08;;;;;;;15.60;10.00;;;;;;;;;;4951810;28;20194;-75
2021/08/13 03:49:13;;;;;;;16.90;10.67;;;;;;;;;;4962746;28;20672;-75
2021/08/13 03:52:17;;;;;;;16.40;10.00;;;;;;;;;;4978377;28;20217;-75
2021/08/13 03:55:22;;;;;;;10.60;9.50;;;;;;;;;;4981854;28;20205;-75
2021/08/13 03:58:27;;;;;;;14.77;11.23;;;;;;;;;;4992756;28;20193;-75
2021/08/13 04:01:31;;;;;;;13.90;10.47;;;;;;;;;;4981593;28;20680;-75
2021/08/13 04:04:35;;;;;;;13.17;10.13;;;;;;;;;;4981950;28;20576;-75
2021/08/13 04:07:39;;;;;;;12.17;9.93;;;;;;;;;;4992816;28;20216;-76
2021/08/13 04:10:44;;;;;;;19.53;10.93;;;;;;;;;;4962556;28;20194;-76
2021/08/13 04:13:50;;;;;;;15.73;10.47;;;;;;;;;;4951871;28;20251;-76
2021/08/13 04:16:58;;;;;;;15.43;10.50;;;;;;;;;;4962437;28;20190;-76
2021/08/13 04:20:02;;;;;;;14.83;10.53;;;;;;;;;;4976225;28;20197;-75
2021/08/13 04:23:09;;;;;;;20.17;10.37;;;;;;;;;;4970537;28;20225;-76
2021/08/13 04:26:13;;;;;;;15.13;11.10;;;;;;;;;;4992923;28;20185;-76
2021/08/13 04:29:17;;;;;;;12.53;10.73;;;;;;;;;;4993387;28;20217;-76
2021/08/13 04:32:21;;;;;;;13.43;9.90;;;;;;;;;;4993311;28;20209;-76
2021/08/13 04:35:25;;;;;;;12.93;10.63;;;;;;;;;;4962835;28;20191;-75
2021/08/13 04:38:30;;;;;;;11.63;9.57;;;;;;;;;;4963278;28;20185;-75
2021/08/13 04:41:36;;;;;;;13.27;10.93;;;;;;;;;;4993549;28;20190;-75
2021/08/13 04:44:40;;;;;;;13.57;10.33;;;;;;;;;;4984906;28;20233;-75
2021/08/13 04:47:46;;;;;;;16.03;11.83;;;;;;;;;;4995899;28;20221;-75
2021/08/13 04:50:50;;;;;;;16.80;12.50;;;;;;;;;;4965823;28;20194;-75
2021/08/13 04:53:54;;;;;;;20.00;13.57;;;;;;;;;;4983252;28;20228;-75
2021/08/13 04:57:02;;;;;;;17.50;12.67;;;;;;;;;;4966042;28;20210;-75
2021/08/13 05:00:07;;;;;;;18.17;14.07;;;;;;;;;;4984708;28;20210;-76
2021/08/13 05:03:12;;;;;;;18.20;13.57;;;;;;;;;;4973474;28;20592;-75
2021/08/13 05:06:24;;;;;;;15.83;12.43;;;;;;;;;;4984421;28;20201;-75
2021/08/13 05:09:28;;;;;;;16.97;12.67;;;;;;;;;;4953662;28;20578;-74
2021/08/13 05:12:33;;;;;;;16.20;12.23;;;;;;;;;;4976304;28;20221;-74
2021/08/13 05:15:37;;;;;;;15.20;13.13;;;;;;;;;;4965334;28;20198;-74
2021/08/13 05:18:41;;;;;;;18.53;13.37;;;;;;;;;;4984643;28;20189;-74
2021/08/13 05:21:46;;;;;;;19.63;13.47;;;;;;;;;;4984877;28;20540;-74
2021/08/13 05:24:59;;;;;;;16.80;12.43;;;;;;;;;;4970008;28;20561;-74
2021/08/13 05:28:03;;;;;;;16.73;12.23;;;;;;;;;;4995304;28;20221;-75
2021/08/13 05:31:10;;;;;;;16.40;12.57;;;;;;;;;;4954400;28;20198;-74
2021/08/13 05:34:14;;;;;;;19.47;12.93;;;;;;;;;;4979692;28;20747;-74
2021/08/13 05:37:19;;;;;;;16.47;11.90;;;;;;;;;;4972679;28;20209;-74
2021/08/13 05:40:24;;;;;;;16.97;11.73;;;;;;;;;;4971035;28;20297;-74
2021/08/13 05:43:29;;;;;;;19.60;11.20;;;;;;;;;;4984268;28;20747;-74
2021/08/13 05:46:33;;;;;;;14.07;11.10;;;;;;;;;;4983078;28;20200;-74
2021/08/13 05:49:37;;;;;;;18.03;10.87;;;;;;;;;;4972692;28;20248;-74
2021/08/13 05:52:42;;;;;;;13.43;11.47;;;;;;;;;;4983633;28;20565;-73
2021/08/13 05:55:46;;;;;;;11.97;10.57;;;;;;;;;;4953024;28;20656;-74
2021/08/13 05:58:59;;;;;;;14.37;9.97;;;;;;;;;;4964827;28;20668;-74
2021/08/13 06:02:04;;;;;;;12.90;9.87;;;;;;;;;;4976219;28;20186;-74
2021/08/13 06:05:08;;;;;;;12.50;10.33;;;;;;;;;;4993051;28;20202;-74
2021/08/13 06:08:12;;;;;;;11.73;9.83;;;;;;;;;;4972612;28;20217;-74
2021/08/13 06:11:16;;;;;;;14.90;10.57;;;;;;;;;;4983559;28;20186;-74
2021/08/13 06:14:21;;;;;;;12.80;10.33;;;;;;;;;;4983589;28;20237;-74
2021/08/13 06:17:25;;;;;;;15.43;10.00;;;;;;;;;;4983138;28;20200;-74
2021/08/13 06:20:29;;;;;;;11.40;9.63;;;;;;;;;;4983360;28;20199;-74
2021/08/13 06:23:49;;;;;;;14.10;10.00;;;;;;;;;;4964032;28;20247;-74
2021/08/13 06:26:55;;;;;;;14.83;9.83;;;;;;;;;;4975488;28;20201;-74
2021/08/13 06:29:59;;;;;;;12.30;9.53;;;;;;;;;;4969309;28;20213;-74
2021/08/13 06:33:03;;;;;;;16.37;10.17;;;;;;;;;;4993985;28;20233;-73
2021/08/13 06:36:10;;;;;;;12.53;10.20;;;;;;;;;;4964564;28;20198;-74
2021/08/13 06:39:15;;;;;;;14.13;9.13;;;;;;;;;;4982899;28;20197;-74
2021/08/13 06:42:20;;;;;;;10.33;8.43;;;;;;;;;;4982854;28;20209;-74
2021/08/13 06:45:45;;;;;;;11.37;8.77;;;;;;;;;;4982909;28;20195;-73
2021/08/13 06:48:57;;;;;;;10.77;8.50;;;;;;;;;;4982875;28;20217;-73
2021/08/13 06:52:02;;;;;;;10.13;8.67;;;;;;;;;;4983163;28;20194;-73
2021/08/13 06:55:08;;;;;;;9.23;8.30;;;;;;;;;;4982867;28;20557;-73
2021/08/13 06:58:12;;;;;;;10.97;9.83;;;;;;;;;;4982838;28;20190;-73
2021/08/13 07:01:18;;;;;;;12.83;10.00;;;;;;;;;;4994011;28;20584;-73
2021/08/13 07:04:23;;;;;;;11.43;8.53;;;;;;;;;;4982335;28;20232;-73
2021/08/13 07:07:27;;;;;;;9.97;8.93;;;;;;;;;;4981759;28;20189;-73
2021/08/13 07:10:32;;;;;;;11.57;8.93;;;;;;;;;;4982364;28;20661;-73
2021/08/13 07:13:35;;;;;;;14.23;10.37;;;;;;;;;;4981710;28;20237;-73
2021/08/13 07:16:40;;;;;;;13.70;10.13;;;;;;;;;;4981158;28;20549;-73
2021/08/13 07:19:44;;;;;;;18.13;9.50;;;;;;;;;;4993392;28;20201;-73
2021/08/13 07:22:48;;;;;;;11.60;8.77;;;;;;;;;;4993421;28;20201;-73
2021/08/13 07:25:52;;;;;;;13.17;9.57;;;;;;;;;;4982311;28;20206;-74
2021/08/13 07:28:56;;;;;;;12.17;9.33;;;;;;;;;;4969473;28;20220;-74
2021/08/13 07:32:01;;;;;;;14.77;9.23;;;;;;;;;;4982260;28;20569;-74
2021/08/13 07:35:08;;;;;;;13.17;9.57;;;;;;;;;;4982088;28;20191;-73
2021/08/13 07:38:21;;;;;;;17.63;9.70;;;;;;;;;;4972553;28;20187;-73
2021/08/13 07:41:26;;;;;;;16.10;10.20;;;;;;;;;;4982441;28;20196;-73
2021/08/13 07:44:31;;;;;;;13.43;9.33;;;;;;;;;;4981721;28;20618;-73
2021/08/13 07:47:36;;;;;;;10.50;8.70;;;;;;;;;;4973619;28;20702;-74
2021/08/13 07:50:42;;;;;;;9.33;8.10;;;;;;;;;;4971411;28;20191;-74
2021/08/13 07:53:46;;;;;;;12.43;8.50;;;;;;;;;;5001573;28;20219;-74
2021/08/13 07:56:50;;;;;;;9.87;7.83;;;;;;;;;;4983497;28;20196;-74
2021/08/13 07:59:54;;;;;;;9.70;8.37;;;;;;;;;;4982167;28;20175;-74
2021/08/13 08:03:00;;;;;;;13.53;8.33;;;;;;;;;;4981787;28;20214;-74
2021/08/13 08:06:06;;;;;;;9.33;8.20;;;;;;;;;;4993513;28;20566;-73
2021/08/13 08:09:10;;;;;;;10.77;8.47;;;;;;;;;;4993721;28;20209;-74
2021/08/13 08:12:14;;;;;;;12.90;7.88;;;;;;;;;;5011204;23;20211;-75
2021/08/13 08:15:18;;;;;;;14.25;7.85;;;;;;;;;;5013008;28;20571;-75
2021/08/13 08:18:23;;;;;;;13.05;7.85;;;;;;;;;;5003154;28;20197;-75
2021/08/13 08:21:27;;;;;;;9.45;7.13;;;;;;;;;;5017326;28;20181;-75
2021/08/13 08:24:31;;;;;;;11.70;8.02;;;;;;;;;;5016854;28;20222;-74
2021/08/13 08:27:36;;;;;;;10.98;7.32;;;;;;;;;;5017476;28;20540;-75
2021/08/13 08:30:40;;;;;;;12.27;7.30;;;;;;;;;;5016916;28;20188;-75
2021/08/13 08:33:44;;;;;;;11.90;6.68;;;;;;;;;;5016785;28;20242;-74
2021/08/13 08:36:48;;;;;;;12.57;6.60;;;;;;;;;;5016827;28;20175;-74
2021/08/13 08:39:54;;;;;;;10.63;7.72;;;;;;;;;;5001788;28;20179;-75
2021/08/13 08:42:59;;;;;;;11.18;7.47;;;;;;;;;;5017055;28;20240;-75
2021/08/13 08:46:03;;;;;;;10.50;6.70;;;;;;;;;;5016661;28;20197;-77
2021/08/13 08:49:10;;;;;;;9.68;7.15;;;;;;;;;;5016764;28;20220;-74
2021/08/13 08:52:14;;;;;;;8.90;7.00;;;;;;;;;;5017031;28;20633;-74
2021/08/13 08:55:19;;;;;;;11.05;7.18;;;;;;;;;;5016800;28;20190;-75
2021/08/13 08:58:25;;;;;;;13.43;6.88;;;;;;;;;;5004953;28;20197;-75
2021/08/13 09:01:30;;;;;;;9.52;7.00;;;;;;;;;;5016624;28;20192;-76
2021/08/13 09:04:34;;;;;;;9.48;7.47;;;;;;;;;;5016468;28;20213;-75
2021/08/13 09:07:39;;;;;;;11.77;6.50;;;;;;;;;;5016225;28;20206;-75
2021/08/13 09:10:43;;;;;;;11.70;6.97;;;;;;;;;;5016094;28;20209;-75
2021/08/13 09:13:58;;;;;;;11.68;7.45;;;;;;;;;;5007437;28;20233;-75
2021/08/13 09:17:03;;;;;;;7.75;6.75;;;;;;;;;;4996718;28;20211;-74
2021/08/13 09:20:07;;;;;;;10.48;6.95;;;;;;;;;;4997066;28;20178;-75
2021/08/13 09:23:47;;;;;;;11.18;7.03;;;;;;;;;;5011473;28;20253;-75
2021/08/13 09:26:51;;;;;;;6.82;6.13;;;;;;;;;;5011904;28;20190;-74
2021/08/13 09:30:15;;;;;;;7.57;6.82;;;;;;;;;;4984472;28;20206;-74
2021/08/13 09:33:25;;;;;;;7.00;6.30;;;;;;;;;;4982181;28;20221;-74
2021/08/13 09:36:32;;;;;;;14.90;6.30;;;;;;;;;;4992183;28;20185;-74
2021/08/13 09:39:36;;;;;;;8.02;6.55;;;;;;;;;;4995584;28;20186;-73
2021/08/13 09:42:40;;;;;;;10.25;6.78;;;;;;;;;;5003208;28;20190;-73
2021/08/13 09:45:45;;;;;;;10.60;7.07;;;;;;;;;;4984184;28;20178;-74
2021/08/13 09:48:50;;;;;;;8.95;6.57;;;;;;;;;;5013676;28;21386;-74
2021/08/13 09:51:54;;;;;;;12.02;6.53;;;;;;;;;;5003800;28;20210;-74
2021/08/13 09:55:10;;;;;;;7.43;6.15;;;;;;;;;;5011078;28;20213;-73
2021/08/13 09:58:24;;;;;;;10.82;6.60;;;;;;;;;;5002889;28;20189;-74
2021/08/13 10:01:43;;;;;;;9.13;6.15;;;;;;;;;;5015414;28;20178;-74
2021/08/13 10:04:47;;;;;;;12.85;6.53;;;;;;;;;;4997276;28;20221;-73
2021/08/13 10:07:56;;;;;;;7.68;6.25;;;;;;;;;;5015349;28;20270;-74
2021/08/13 10:11:11;;;;;;;10.05;7.28;;;;;;;;;;5002950;28;20213;-74
2021/08/13 10:14:36;;;;;;;8.18;6.35;;;;;;;;;;4991751;28;20238;-73
2021/08/13 10:17:41;;;;;;;8.50;6.22;;;;;;;;;;4992376;28;20194;-74
2021/08/13 10:20:49;;;;;;;7.70;6.13;;;;;;;;;;5001940;28;20198;-74
2021/08/13 10:23:59;;;;;;;9.18;6.38;;;;;;;;;;5001434;28;20222;-74
2021/08/13 10:27:04;;;;;;;7.40;5.82;;;;;;;;;;5002849;28;20182;-75
2021/08/13 10:30:10;;;;;;;6.32;5.78;;;;;;;;;;5013915;28;20667;-74
2021/08/13 10:33:18;;;;;;;9.30;5.22;;;;;;;;;;4988496;28;20225;-74
2021/08/13 10:36:23;;;;;;;9.75;5.38;;;;;;;;;;5025061;28;20201;-74
2021/08/13 10:39:31;;;;;;;9.93;5.57;;;;;;;;;;5007030;28;20546;-74
2021/08/13 10:42:39;;;;;;;10.43;5.75;;;;;;;;;;4987607;28;20181;-74
2021/08/13 10:45:48;;;;;;;6.32;4.45;;;;;;;;;;5011166;28;20189;-74
2021/08/13 10:48:52;;;;;;;13.35;3.33;;;;;;;;;;5018550;28;20209;-74
2021/08/13 10:52:02;;;;;;;4.93;2.83;;;;;;;;;;5018497;28;20192;-75
2021/08/13 10:55:08;;;;;;;4.28;1.92;;;;;;;;;;5010317;28;20186;-74
2021/08/13 10:58:13;;;;;;;8.95;3.20;;;;;;;;;;5008349;28;20201;-74
2021/08/13 11:01:21;;;;;;;6.90;2.50;;;;;;;;;;5021830;28;20189;-74
2021/08/13 11:04:39;;;;;;;9.95;3.05;;;;;;;;;;5021175;28;20424;-75
2021/08/13 11:07:59;;;;;;;6.15;2.60;;;;;;;;;;5014210;28;20193;-74
2021/08/13 11:11:23;;;;;;;6.63;2.80;;;;;;;;;;5020337;28;20225;-73
2021/08/13 11:14:52;;;;;;;5.15;2.97;;;;;;;;;;5021620;28;20572;-74
2021/08/13 11:18:01;;;;;;;5.97;2.70;;;;;;;;;;5034164;28;20186;-74
2021/08/13 11:21:11;;;;;;;6.90;2.95;;;;;;;;;;5010392;28;20197;-74
2021/08/13 11:24:19;;;;;;;8.23;2.95;;;;;;;;;;5021549;28;20216;-74
2021/08/13 11:27:35;;;;;;;6.63;2.80;;;;;;;;;;5021747;28;20185;-74
2021/08/13 11:30:42;;;;;;;9.60;3.03;;;;;;;;;;5033276;28;20200;-73
2021/08/13 11:33:46;;;;;;;5.63;2.95;;;;;;;;;;5009995;28;20216;-74
2021/08/13 11:36:53;;;;;;;6.50;2.78;;;;;;;;;;5021412;28;20676;-74
2021/08/13 11:40:23;;;;;;;9.88;3.08;;;;;;;;;;5002110;28;20637;-75
2021/08/13 11:43:29;;;;;;;5.22;3.17;;;;;;;;;;5009609;28;20216;-74
2021/08/13 11:46:37;;;;;;;5.50;2.78;;;;;;;;;;5021110;28;20200;-75
2021/08/13 11:49:47;;;;;;;5.45;2.63;;;;;;;;;;5009716;28;20209;-74
2021/08/13 11:52:52;;;;;;;5.03;2.65;;;;;;;;;;5019892;28;20224;-74
2021/08/13 11:55:57;;;;;;;12.55;3.17;;;;;;;;;;5021190;28;20197;-74
2021/08/13 11:59:05;;;;;;;7.45;2.75;;;;;;;;;;5020673;28;20680;-75
2021/08/13 12:02:12;;;;;;;8.88;2.55;;;;;;;;;;5021165;28;20189;-73
2021/08/13 12:05:15;;;;;;;9.10;3.42;;;;;;;;;;5020871;28;20209;-73
2021/08/13 12:08:19;;;;;;;9.15;2.83;;;;;;;;;;5033496;28;20178;-73
2021/08/13 12:11:29;;;;;;;9.15;2.80;;;;;;;;;;5020065;28;20201;-72
2021/08/13 12:14:37;;;;;;;9.93;3.50;;;;;;;;;;5020059;28;20224;-72
2021/08/13 12:17:51;;;;;;;5.68;2.78;;;;;;;;;;5032781;28;20181;-73
2021/08/13 12:20:56;;;;;;;13.43;2.92;;;;;;;;;;5020806;28;20189;-74
2021/08/13 12:24:01;;;;;;;5.18;2.80;;;;;;;;;;5017465;28;20676;-74
2021/08/13 12:27:07;;;;;;;10.88;2.90;;;;;;;;;;5017392;28;20189;-74
2021/08/13 12:30:17;;;;;;;5.63;3.17;;;;;;;;;;5017128;28;20218;-73
2021/08/13 12:33:23;;;;;;;5.50;2.75;;;;;;;;;;5017402;28;20221;-74
2021/08/13 12:36:27;;;;;;;7.32;3.20;;;;;;;;;;5029056;28;20189;-74
2021/08/13 12:39:43;;;;;;;8.50;3.13;;;;;;;;;;5017185;28;20197;-74
2021/08/13 12:42:51;;;;;;;8.40;3.03;;;;;;;;;;5017324;28;20201;-74
2021/08/13 12:45:56;;;;;;;5.75;2.90;;;;;;;;;;4997704;28;20174;-74
2021/08/13 12:49:02;;;;;;;6.07;3.00;;;;;;;;;;5003800;28;20190;-73
2021/08/13 12:52:21;;;;;;;6.75;3.13;;;;;;;;;;5027147;28;20193;-75
2021/08/13 12:55:43;;;;;;;7.68;2.80;;;;;;;;;;5015613;28;20581;-74
2021/08/13 12:58:48;;;;;;;6.85;3.20;;;;;;;;;;5028932;28;20181;-74
2021/08/13 13:01:54;;;;;;;8.43;3.33;;;;;;;;;;5015832;28;20178;-74
2021/08/13 13:05:01;;;;;;;7.25;3.22;;;;;;;;;;5010888;28;20197;-75
2021/08/13 13:08:07;;;;;;;8.55;2.88;;;;;;;;;;5001927;28;20193;-74
2021/08/13 13:11:23;;;;;;;7.97;3.22;;;;;;;;;;5019338;28;20213;-74
2021/08/13 13:14:34;;;;;;;5.80;3.28;;;;;;;;;;5009095;28;20233;-74
2021/08/13 13:17:56;;;;;;;12.07;3.35;;;;;;;;;;5001048;28;20181;-74
2021/08/13 13:21:00;;;;;;;12.68;3.80;;;;;;;;;;5017862;28;20205;-74
2021/08/13 13:24:21;;;;;;;16.65;3.83;;;;;;;;;;5020018;28;20355;-74
2021/08/13 13:27:52;;;;;;;10.15;3.60;;;;;;;;;;5020624;28;20803;-74
2021/08/13 13:31:26;;;;;;;13.60;4.00;;;;;;;;;;5017695;28;20236;-74
2021/08/13 13:35:01;;;;;;;7.80;3.40;;;;;;;;;;5032794;28;20196;-74
2021/08/13 13:38:29;;;;;;;12.85;3.72;;;;;;;;;;5022390;28;20205;-74
2021/08/13 13:41:35;;;;;;;11.38;3.75;;;;;;;;;;5025724;28;20608;-74
2021/08/13 13:44:39;;;;;;;9.57;3.60;;;;;;;;;;5039100;28;20709;-74
2021/08/13 13:47:46;;;;;;;14.60;3.60;;;;;;;;;;5039068;28;20204;-74
2021/08/13 13:50:53;;;;;;;9.80;3.78;;;;;;;;;;5039767;28;20798;-74
2021/08/13 13:53:57;;;;;;;12.20;3.83;;;;;;;;;;5051556;28;20220;-74
2021/08/13 13:57:02;;;;;;;7.93;3.65;;;;;;;;;;5030497;28;20195;-74
2021/08/13 14:00:14;;;;;;;8.77;3.90;;;;;;;;;;5032683;28;20185;-74
2021/08/13 14:03:23;;;;;;;8.35;3.78;;;;;;;;;;5039078;28;20216;-74
2021/08/13 14:06:28;;;;;;;10.63;3.63;;;;;;;;;;5008735;28;20189;-74
2021/08/13 14:09:32;;;;;;;11.85;4.00;;;;;;;;;;5039590;28;20187;-76
2021/08/13 14:12:37;;;;;;;8.73;3.60;;;;;;;;;;5038450;28;20219;-74
2021/08/13 14:15:42;;;;;;;11.73;3.88;;;;;;;;;;5038294;28;20201;-74
2021/08/13 14:18:47;;;;;;;11.80;3.40;;;;;;;;;;5039286;28;20298;-74
2021/08/13 14:21:52;;;;;;;7.53;3.50;;;;;;;;;;5039183;28;20520;-74
2021/08/13 14:24:56;;;;;;;9.32;3.53;;;;;;;;;;5038401;28;20232;-74
2021/08/13 14:28:00;;;;;;;10.60;3.63;;;;;;;;;;5039144;28;20218;-74
2021/08/13 14:31:08;;;;;;;11.02;4.00;;;;;;;;;;5027545;28;20212;-74
2021/08/13 14:34:12;;;;;;;9.70;4.20;;;;;;;;;;5041647;28;20229;-74
2021/08/13 14:37:16;;;;;;;10.35;3.55;;;;;;;;;;5050754;28;20822;-74
2021/08/13 14:40:21;;;;;;;5.07;3.40;;;;;;;;;;5026515;28;20559;-74
2021/08/13 14:43:26;;;;;;;9.55;4.35;;;;;;;;;;5038359;28;20224;-74
2021/08/13 14:46:31;;;;;;;9.48;3.80;;;;;;;;;;5037889;28;20200;-74
2021/08/13 14:49:35;;;;;;;7.10;3.58;;;;;;;;;;5036014;28;20188;-74
2021/08/13 14:52:40;;;;;;;9.50;3.80;;;;;;;;;;5049701;28;20196;-74
2021/08/13 14:55:49;;;;;;;8.80;3.85;;;;;;;;;;5037906;28;20196;-76
2021/08/13 14:58:56;;;;;;;13.15;4.30;;;;;;;;;;5025993;28;20188;-76
2021/08/13 15:02:02;;;;;;;10.30;4.47;;;;;;;;;;5018762;28;20197;-73
2021/08/13 15:05:07;;;;;;;7.05;3.95;;;;;;;;;;5038312;28;20191;-75
2021/08/13 15:08:11;;;;;;;9.48;3.90;;;;;;;;;;5037871;28;20188;-76
2021/08/13 15:11:16;;;;;;;6.45;3.55;;;;;;;;;;5037181;28;20563;-74
2021/08/13 15:14:20;;;;;;;8.30;3.47;;;;;;;;;;5048908;28;20235;-74
2021/08/13 15:17:24;;;;;;;11.30;4.60;;;;;;;;;;5037252;28;20177;-75
2021/08/13 15:20:29;;;;;;;9.07;4.03;;;;;;;;;;5023795;28;20180;-76
2021/08/13 15:23:33;;;;;;;7.28;4.07;;;;;;;;;;5024663;28;20694;-76
2021/08/13 15:26:39;;;;;;;7.55;3.88;;;;;;;;;;5049173;28;20188;-75
2021/08/13 15:29:43;;;;;;;12.05;4.45;;;;;;;;;;5045731;28;20193;-76
2021/08/13 15:32:49;;;;;;;12.25;4.18;;;;;;;;;;5048675;28;20191;-75
2021/08/13 15:35:53;;;;;;;10.38;4.35;;;;;;;;;;5041685;28;20542;-75
2021/08/13 15:38:57;;;;;;;12.85;4.15;;;;;;;;;;5048743;28;20196;-76
2021/08/13 15:42:01;;;;;;;21.27;5.20;;;;;;;;;;5048772;28;20200;-76
2021/08/13 15:45:06;;;;;;;12.05;4.88;;;;;;;;;;5046773;28;20199;-76
2021/08/13 15:48:10;;;;;;;9.55;4.47;;;;;;;;;;5024429;28;20200;-76
2021/08/13 15:51:13;;;;;;;9.32;4.28;;;;;;;;;;5048500;28;20200;-76
2021/08/13 15:54:18;;;;;;;10.15;4.13;;;;;;;;;;5031985;28;20219;-76
2021/08/13 15:57:22;;;;;;;9.77;4.38;;;;;;;;;;5032886;28;20503;-76
2021/08/13 16:00:26;;;;;;;12.27;4.65;;;;;;;;;;5048172;28;20501;-75
2021/08/13 16:03:30;;;;;;;10.25;4.45;;;;;;;;;;5048184;28;20220;-75
2021/08/13 16:06:35;;;;;;;9.30;4.57;;;;;;;;;;5025625;28;20199;-76
2021/08/13 16:09:39;;;;;;;14.73;4.53;;;;;;;;;;5040751;28;20193;-76
2021/08/13 16:12:43;;;;;;;13.27;4.35;;;;;;;;;;5008212;28;1124548;-76
2021/08/13 16:15:50;;;;;;;8.82;4.35;;;;;;;;;;5048492;28;20201;-76
2021/08/13 16:18:54;;;;;;;10.35;5.43;;;;;;;;;;5049295;28;20202;-75
2021/08/13 16:21:59;;;;;;;7.72;4.32;;;;;;;;;;5048791;28;20197;-76
2021/08/13 16:25:05;;;;;;;15.27;5.40;;;;;;;;;;5048443;28;20524;-75
2021/08/13 16:28:14;;;;;;;8.70;4.90;;;;;;;;;;5026570;28;20218;-75
2021/08/13 16:31:18;;;;;;;9.30;5.30;;;;;;;;;;5049430;28;20214;-76
2021/08/13 16:34:23;;;;;;;13.02;4.80;;;;;;;;;;5049397;28;20209;-76
2021/08/13 16:37:27;;;;;;;10.52;4.45;;;;;;;;;;5037273;28;20205;-76
2021/08/13 16:40:31;;;;;;;9.05;4.88;;;;;;;;;;5052800;28;20205;-76
2021/08/13 16:43:35;;;;;;;11.55;5.10;;;;;;;;;;5029474;28;20219;-76
2021/08/13 16:46:39;;;;;;;10.07;4.65;;;;;;;;;;5049834;28;20209;-76
2021/08/13 16:49:43;;;;;;;12.32;4.93;;;;;;;;;;5029420;28;20192;-76
2021/08/13 16:52:47;;;;;;;7.50;4.90;;;;;;;;;;5021047;28;20222;-76
2021/08/13 16:55:52;;;;;;;8.38;4.93;;;;;;;;;;5040455;28;20212;-76
2021/08/13 16:58:56;;;;;;;11.05;4.85;;;;;;;;;;5052506;28;20195;-76
2021/08/13 17:02:00;;;;;;;9.50;5.00;;;;;;;;;;5020313;28;20199;-76
2021/08/13 17:05:05;;;;;;;10.60;5.05;;;;;;;;;;5045330;28;20202;-76
2021/08/13 17:08:10;;;;;;;8.93;5.28;;;;;;;;;;5046971;28;20194;-76
2021/08/13 17:11:14;;;;;;;10.57;5.45;;;;;;;;;;5019262;28;20591;-76
2021/08/13 17:14:18;;;;;;;12.30;5.40;;;;;;;;;;5047650;28;20238;-76
2021/08/13 17:17:22;;;;;;;9.75;5.47;;;;;;;;;;5040014;28;20562;-76
2021/08/13 17:20:26;;;;;;;10.80;5.53;;;;;;;;;;5040006;28;20202;-75
2021/08/13 17:23:30;;;;;;;14.60;5.63;;;;;;;;;;5039637;28;20226;-75
2021/08/13 17:26:35;;;;;;;19.13;5.85;;;;;;;;;;5051969;28;20657;-76
2021/08/13 17:29:39;;;;;;;12.80;5.88;;;;;;;;;;5024539;28;20202;-76
2021/08/13 17:32:43;;;;;;;13.57;5.63;;;;;;;;;;5049993;28;20218;-76
2021/08/13 17:35:47;;;;;;;10.93;5.10;;;;;;;;;;5039436;28;20193;-75
2021/08/13 17:38:51;;;;;;;8.10;5.03;;;;;;;;;;5039592;28;20201;-75
2021/08/13 17:41:55;;;;;;;9.50;6.07;;;;;;;;;;5040021;28;20189;-75
2021/08/13 17:44:59;;;;;;;8.10;5.40;;;;;;;;;;5051901;28;20713;-75
2021/08/13 17:48:04;;;;;;;10.07;5.75;;;;;;;;;;5039354;28;20195;-76
2021/08/13 17:51:08;;;;;;;19.17;8.48;;;;;;;;;;5050811;28;20206;-76
2021/08/13 17:54:13;;;;;;;10.00;5.97;;;;;;;;;;5038900;28;20225;-75
2021/08/13 17:57:17;;;;;;;7.50;5.60;;;;;;;;;;5040527;28;20204;-75
2021/08/13 18:00:22;;;;;;;8.85;5.97;;;;;;;;;;5051553;28;20512;-75
2021/08/13 18:03:26;;;;;;;13.70;7.13;;;;;;;;;;5039222;28;20688;-75
2021/08/13 18:06:30;;;;;;;10.77;5.93;;;;;;;;;;5051755;28;20188;-75
2021/08/13 18:09:34;;;;;;;7.93;5.32;;;;;;;;;;5043083;28;20683;-75
2021/08/13 18:12:39;;;;;;;13.43;5.82;;;;;;;;;;5050950;28;20240;-76
2021/08/13 18:15:43;;;;;;;14.68;6.43;;;;;;;;;;5038959;28;20192;-75
2021/08/13 18:18:47;;;;;;;7.90;5.60;;;;;;;;;;5051057;28;20676;-75
2021/08/13 18:21:51;;;;;;;9.25;5.63;;;;;;;;;;5051551;28;20179;-75
2021/08/13 18:24:56;;;;;;;10.52;6.10;;;;;;;;;;5050946;28;20227;-75